createdAt,value
2022-10-29T00:02:20.250Z,8.27
2022-10-29T00:05:04.107Z,8.00
2022-10-29T00:07:30.575Z,9.35
2022-10-29T00:09:56.962Z,9.50
2022-10-29T00:12:23.524Z,11.38
2022-10-29T00:14:49.879Z,8.25
2022-10-29T00:17:31.691Z,7.82
2022-10-29T00:19:59.809Z,7.07
2022-10-29T00:22:38.537Z,6.70
2022-10-29T00:25:14.297Z,6.13
2022-10-29T00:27:40.722Z,10.10
2022-10-29T00:30:08.814Z,7.68
2022-10-29T00:32:40.301Z,4.93
2022-10-29T00:35:06.843Z,8.20
2022-10-29T00:37:37.392Z,10.77
2022-10-29T00:40:04.828Z,9.18
2022-10-29T00:42:31.329Z,9.43
2022-10-29T00:44:57.749Z,8.20
2022-10-29T00:47:32.078Z,5.07
2022-10-29T00:50:13.131Z,5.28
2022-10-29T00:52:50.739Z,9.60
2022-10-29T00:55:18.378Z,8.65
2022-10-29T00:57:52.695Z,7.22
2022-10-29T01:00:28.062Z,10.33
2022-10-29T01:02:54.920Z,6.88
2022-10-29T01:05:41.145Z,7.97
2022-10-29T01:08:11.571Z,6.60
2022-10-29T01:11:18.966Z,11.23
2022-10-29T01:14:23.216Z,13.03
2022-10-29T01:17:29.018Z,8.73
2022-10-29T01:20:23.034Z,6.25
2022-10-29T01:23:11.964Z,6.78
2022-10-29T01:25:56.039Z,7.72
2022-10-29T01:29:01.401Z,7.57
2022-10-29T01:31:41.395Z,7.10
2022-10-29T01:34:51.723Z,7.80
2022-10-29T01:37:35.385Z,3.40
2022-10-29T01:40:07.351Z,3.97
2022-10-29T01:42:53.614Z,5.37
2022-10-29T01:45:36.594Z,7.22
2022-10-29T01:48:34.111Z,11.20
2022-10-29T01:51:08.147Z,9.23
2022-10-29T01:53:37.480Z,8.73
2022-10-29T01:56:04.363Z,9.43
2022-10-29T01:58:32.939Z,9.27
2022-10-29T02:01:37.144Z,10.07
2022-10-29T02:04:19.868Z,8.07
2022-10-29T02:06:58.431Z,10.98
2022-10-29T02:09:32.445Z,12.93
2022-10-29T02:12:09.122Z,8.75
2022-10-29T02:14:41.367Z,11.70
2022-10-29T02:17:18.712Z,15.23
2022-10-29T02:19:45.190Z,13.38
2022-10-29T02:22:15.771Z,13.93
2022-10-29T02:24:47.379Z,16.63
2022-10-29T02:27:26.075Z,13.50
2022-10-29T02:29:52.576Z,12.55
2022-10-29T02:32:19.034Z,18.80
2022-10-29T02:34:45.467Z,16.67
2022-10-29T02:37:13.005Z,12.50
2022-10-29T02:39:39.452Z,10.10
2022-10-29T02:42:15.228Z,24.27
2022-10-29T02:44:41.647Z,18.75
2022-10-29T02:47:08.085Z,23.50
2022-10-29T02:49:34.633Z,21.20
2022-10-29T02:52:13.429Z,25.38
2022-10-29T02:55:10.874Z,17.25
2022-10-29T02:57:37.617Z,28.60
2022-10-29T03:00:05.371Z,23.37
2022-10-29T03:03:13.394Z,14.07
2022-10-29T03:05:39.783Z,13.48
2022-10-29T03:08:09.421Z,15.82
2022-10-29T03:10:36.983Z,18.27
2022-10-29T03:13:03.446Z,16.13
2022-10-29T03:15:45.479Z,15.43
2022-10-29T03:18:12.241Z,11.70
2022-10-29T03:20:38.821Z,12.15
2022-10-29T03:23:05.292Z,29.92
2022-10-29T03:25:56.070Z,28.13
2022-10-29T03:28:30.772Z,22.85
2022-10-29T03:30:58.517Z,17.98
2022-10-29T03:33:28.806Z,24.45
2022-10-29T03:35:57.280Z,14.23
2022-10-29T03:38:31.231Z,15.87
2022-10-29T03:41:14.436Z,11.43
2022-10-29T03:43:41.046Z,14.32
2022-10-29T03:46:09.546Z,20.23
2022-10-29T03:48:51.458Z,21.50
2022-10-29T03:51:18.891Z,16.47
2022-10-29T03:53:58.632Z,17.88
2022-10-29T03:56:26.046Z,27.45
2022-10-29T03:58:52.528Z,15.73
2022-10-29T04:01:19.055Z,18.27
2022-10-29T04:03:48.703Z,12.27
2022-10-29T04:06:16.209Z,10.23
2022-10-29T04:08:55.143Z,9.90
2022-10-29T04:11:22.446Z,10.75
2022-10-29T04:13:53.448Z,15.75
2022-10-29T04:16:20.060Z,12.00
2022-10-29T04:18:52.271Z,13.98
2022-10-29T04:30:24.887Z,7.70
2022-10-29T04:33:02.385Z,6.22
2022-10-29T04:35:29.264Z,5.78
2022-10-29T04:37:55.709Z,7.82
2022-10-29T04:40:23.995Z,6.57
2022-10-29T04:42:54.767Z,6.80
2022-10-29T04:45:51.064Z,6.40
2022-10-29T04:48:17.621Z,5.80
2022-10-29T04:50:44.017Z,7.70
2022-10-29T04:53:19.891Z,6.53
2022-10-29T04:55:46.362Z,6.43
2022-10-29T04:58:21.191Z,8.00
2022-10-29T05:00:47.755Z,5.72
2022-10-29T05:03:17.382Z,6.78
2022-10-29T05:05:44.002Z,7.03
2022-10-29T05:08:11.471Z,5.57
2022-10-29T05:10:39.693Z,6.97
2022-10-29T05:13:09.945Z,7.70
2022-10-29T05:15:53.550Z,7.88
2022-10-29T05:18:20.540Z,7.03
2022-10-29T05:20:46.895Z,8.40
2022-10-29T05:23:13.425Z,6.85
2022-10-29T05:25:41.514Z,10.15
2022-10-29T05:28:13.015Z,6.55
2022-10-29T05:30:45.320Z,6.90
2022-10-29T05:33:14.729Z,8.50
2022-10-29T05:35:42.350Z,7.97
2022-10-29T05:38:10.650Z,10.10
2022-10-29T05:40:40.189Z,10.02
2022-10-29T05:43:06.563Z,9.80
2022-10-29T05:45:43.653Z,8.10
2022-10-29T05:51:09.948Z,10.20
2022-10-29T05:53:36.612Z,12.30
2022-10-29T05:56:12.352Z,9.73
2022-10-29T05:59:32.757Z,9.83
2022-10-29T06:02:01.397Z,9.05
2022-10-29T06:04:27.910Z,10.18
2022-10-29T06:07:04.640Z,13.23
2022-10-29T06:09:31.078Z,9.63
2022-10-29T06:12:14.905Z,9.67
2022-10-29T06:14:54.517Z,10.55
2022-10-29T06:17:20.904Z,10.07
2022-10-29T06:19:48.298Z,7.57
2022-10-29T06:22:14.720Z,7.95
2022-10-29T06:24:46.219Z,14.37
2022-10-29T06:27:17.642Z,10.38
2022-10-29T06:29:44.031Z,10.80
2022-10-29T06:32:21.820Z,10.75
2022-10-29T06:34:49.269Z,11.27
2022-10-29T06:37:16.740Z,9.40
2022-10-29T06:39:43.162Z,9.25
2022-10-29T06:42:09.542Z,9.77
2022-10-29T06:44:37.919Z,9.93
2022-10-29T06:47:13.886Z,11.70
2022-10-29T06:49:40.276Z,10.97
2022-10-29T06:52:06.679Z,11.32
2022-10-29T06:54:48.492Z,9.65
2022-10-29T06:57:15.917Z,10.88
2022-10-29T06:59:42.263Z,10.27
2022-10-29T07:03:12.410Z,13.93
2022-10-29T07:05:38.763Z,12.32
2022-10-29T07:08:29.026Z,11.15
2022-10-29T07:10:55.411Z,14.10
2022-10-29T07:13:21.866Z,11.57
2022-10-29T07:15:58.571Z,10.63
2022-10-29T07:18:28.135Z,15.38
2022-10-29T07:21:04.750Z,14.30
2022-10-29T07:23:31.158Z,13.63
2022-10-29T07:25:57.566Z,16.63
2022-10-29T07:28:29.030Z,15.50
2022-10-29T07:31:00.192Z,15.57
2022-10-29T07:33:36.091Z,18.23
2022-10-29T07:36:06.103Z,15.38
2022-10-29T07:38:32.494Z,19.30
2022-10-29T07:41:09.220Z,18.37
2022-10-29T07:43:35.592Z,16.27
2022-10-29T07:46:05.769Z,20.63
2022-10-29T07:48:34.224Z,21.23
2022-10-29T07:51:10.774Z,16.02
2022-10-29T07:53:37.153Z,21.40
2022-10-29T07:56:03.670Z,19.30
2022-10-29T07:58:36.332Z,17.95
2022-10-29T08:01:02.930Z,21.10
2022-10-29T08:03:29.316Z,19.70
2022-10-29T08:05:58.683Z,18.73
2022-10-29T08:08:27.147Z,20.77
2022-10-29T08:10:53.697Z,18.70
2022-10-29T08:13:20.060Z,19.13
2022-10-29T08:15:52.462Z,18.27
2022-10-29T08:18:31.027Z,20.10
2022-10-29T08:20:57.538Z,23.67
2022-10-29T08:23:36.094Z,19.83
2022-10-29T08:26:02.967Z,20.33
2022-10-29T08:28:30.523Z,17.13
2022-10-29T08:30:59.638Z,20.97
2022-10-29T08:33:26.031Z,14.30
2022-10-29T08:36:03.827Z,18.75
2022-10-29T08:38:30.216Z,16.50
2022-10-29T08:41:06.858Z,18.85
2022-10-29T08:44:04.405Z,19.93
2022-10-29T08:46:43.338Z,15.70
2022-10-29T08:49:17.454Z,22.13
2022-10-29T08:51:51.302Z,17.02
2022-10-29T08:54:30.146Z,17.35
2022-10-29T08:57:23.508Z,18.13
2022-10-29T09:00:05.617Z,15.40
2022-10-29T09:02:32.016Z,19.98
2022-10-29T09:05:20.585Z,16.13
2022-10-29T09:08:28.355Z,14.55
2022-10-29T09:11:32.892Z,12.97
2022-10-29T09:14:29.428Z,17.25
2022-10-29T09:17:11.460Z,15.88
2022-10-29T09:19:57.447Z,17.83
2022-10-29T09:22:34.858Z,20.17
2022-10-29T09:25:40.310Z,14.40
2022-10-29T09:28:24.482Z,22.80
2022-10-29T09:31:02.043Z,18.63
2022-10-29T09:33:29.307Z,17.08
2022-10-29T09:36:14.636Z,21.23
2022-10-29T09:38:57.685Z,18.13
2022-10-29T09:41:32.087Z,20.10
2022-10-29T09:44:06.168Z,18.15
2022-10-29T09:46:56.914Z,19.52
2022-10-29T09:50:05.425Z,14.73
2022-10-29T09:52:39.232Z,16.50
2022-10-29T09:55:07.579Z,15.90
2022-10-29T09:57:36.182Z,16.92
2022-10-29T10:00:04.874Z,14.35
2022-10-29T10:03:33.587Z,20.08
2022-10-29T10:06:28.359Z,17.57
2022-10-29T10:09:16.922Z,16.65
2022-10-29T10:11:52.811Z,17.77
2022-10-29T10:14:21.870Z,16.70
2022-10-29T10:16:58.421Z,15.15
2022-10-29T10:19:30.975Z,17.33
2022-10-29T10:22:01.858Z,20.35
2022-10-29T10:24:38.508Z,18.23
2022-10-29T10:27:29.639Z,18.52
2022-10-29T10:30:22.909Z,18.20
2022-10-29T10:32:51.425Z,18.73
2022-10-29T10:35:32.242Z,17.35
2022-10-29T10:38:06.823Z,19.90
2022-10-29T10:40:33.295Z,14.20
2022-10-29T10:43:03.075Z,14.95
2022-10-29T10:45:59.602Z,15.37
2022-10-29T10:48:33.516Z,18.90
2022-10-29T10:51:33.804Z,14.65
2022-10-29T10:54:50.022Z,15.95
2022-10-29T10:57:22.784Z,16.38
2022-10-29T11:00:17.143Z,16.47
2022-10-29T11:02:58.032Z,16.02
2022-10-29T11:06:08.983Z,16.08
2022-10-29T11:08:43.251Z,18.00
2022-10-29T11:11:27.367Z,18.80
2022-10-29T11:13:58.739Z,14.80
2022-10-29T11:17:10.794Z,15.90
2022-10-29T11:20:18.074Z,16.58
2022-10-29T11:22:59.819Z,13.98
2022-10-29T11:25:36.025Z,16.02
2022-10-29T11:28:26.033Z,17.03
2022-10-29T11:30:59.785Z,14.65
2022-10-29T11:34:18.762Z,16.60
2022-10-29T11:40:56.203Z,12.40
2022-10-29T11:43:41.848Z,13.43
2022-10-29T11:46:46.838Z,14.38
2022-10-29T11:49:29.949Z,13.93
2022-10-29T11:52:21.991Z,13.95
2022-10-29T11:54:48.273Z,13.77
2022-10-29T11:57:22.848Z,14.53
2022-10-29T12:00:05.268Z,14.98
2022-10-29T12:03:03.128Z,12.48
2022-10-29T12:05:54.455Z,16.95
2022-10-29T12:08:42.747Z,15.05
2022-10-29T12:11:27.206Z,11.23
2022-10-29T12:14:06.199Z,11.07
2022-10-29T12:16:41.703Z,14.63
2022-10-29T12:19:40.066Z,16.50
2022-10-29T12:23:03.935Z,14.50
2022-10-29T12:26:02.102Z,13.63
2022-10-29T12:28:45.873Z,16.83
2022-10-29T12:31:39.027Z,14.50
2022-10-29T12:34:10.287Z,12.68
2022-10-29T12:37:20.373Z,13.95
2022-10-29T12:39:56.202Z,10.73
2022-10-29T12:42:39.786Z,14.35
2022-10-29T12:45:26.964Z,11.57
2022-10-29T12:48:08.033Z,11.65
2022-10-29T12:51:03.875Z,11.57
2022-10-29T12:53:49.142Z,13.73
2022-10-29T12:56:30.580Z,10.52
2022-10-29T12:59:17.581Z,12.73
2022-10-29T13:02:13.159Z,13.88
2022-10-29T13:04:34.132Z,13.02
2022-10-29T13:10:25.105Z,14.55
2022-10-29T13:13:07.136Z,12.65
2022-10-29T13:15:44.311Z,12.95
2022-10-29T13:18:58.363Z,14.00
2022-10-29T13:22:11.704Z,13.90
2022-10-29T13:24:38.182Z,10.85
2022-10-29T13:27:38.718Z,14.48
2022-10-29T13:30:33.643Z,14.68
2022-10-29T13:33:00.390Z,14.57
2022-10-29T13:35:27.302Z,16.37
2022-10-29T13:38:10.443Z,14.95
2022-10-29T13:40:56.337Z,14.80
2022-10-29T13:43:23.302Z,17.00
2022-10-29T13:46:01.459Z,16.80
2022-10-29T13:48:33.943Z,13.90
2022-10-29T13:51:27.969Z,16.60
2022-10-29T13:54:16.092Z,14.10
2022-10-29T13:56:51.746Z,17.42
2022-10-29T13:59:30.351Z,15.82
2022-10-29T14:03:01.212Z,15.83
2022-10-29T14:06:09.677Z,14.20
2022-10-29T14:08:49.787Z,13.25
2022-10-29T14:11:50.381Z,18.45
2022-10-29T14:14:57.376Z,15.95
2022-10-29T14:17:30.482Z,17.10
2022-10-29T14:19:56.946Z,16.50
2022-10-29T14:22:29.860Z,15.55
2022-10-29T14:24:57.118Z,14.18
2022-10-29T14:27:23.501Z,17.38
2022-10-29T14:29:53.038Z,13.97
2022-10-29T14:32:23.146Z,20.35
2022-10-29T14:34:51.037Z,14.52
2022-10-29T14:37:44.670Z,16.08
2022-10-29T14:40:30.511Z,16.45
2022-10-29T14:43:05.465Z,15.57
2022-10-29T14:45:32.354Z,15.77
2022-10-29T14:48:10.264Z,16.30
2022-10-29T14:50:45.000Z,14.95
2022-10-29T14:53:40.778Z,14.77
2022-10-29T14:56:11.325Z,14.70
2022-10-29T14:58:38.384Z,16.20
2022-10-29T15:02:32.285Z,18.52
2022-10-29T15:05:03.135Z,13.60
2022-10-29T15:07:35.497Z,16.67
2022-10-29T15:10:18.139Z,13.27
2022-10-29T15:12:52.643Z,11.60
2022-10-29T15:15:19.080Z,14.57
2022-10-29T15:18:12.823Z,15.02
2022-10-29T15:20:39.117Z,21.05
2022-10-29T15:23:28.381Z,14.43
2022-10-29T15:26:02.642Z,16.55
2022-10-29T15:28:31.841Z,16.20
2022-10-29T15:31:02.400Z,14.88
2022-10-29T15:33:30.155Z,19.13
2022-10-29T15:36:00.405Z,14.60
2022-10-29T15:38:52.343Z,17.00
2022-10-29T15:41:46.202Z,17.88
2022-10-29T15:44:29.826Z,20.08
2022-10-29T15:46:59.214Z,22.52
2022-10-29T15:49:34.739Z,21.43
2022-10-29T15:52:01.214Z,13.77
2022-10-29T15:55:10.759Z,13.13
2022-10-29T15:57:37.394Z,16.52
2022-10-29T16:00:06.621Z,15.52
2022-10-29T16:02:37.247Z,16.40
2022-10-29T16:05:06.760Z,13.32
2022-10-29T16:07:37.214Z,14.85
2022-10-29T16:10:03.810Z,13.02
2022-10-29T16:12:31.186Z,11.07
2022-10-29T16:14:58.563Z,11.07
2022-10-29T16:17:43.781Z,15.05
2022-10-29T16:20:19.277Z,12.13
2022-10-29T16:22:48.199Z,14.15
2022-10-29T16:25:20.167Z,12.23
2022-10-29T16:27:46.537Z,12.17
2022-10-29T16:30:13.416Z,11.93
2022-10-29T16:32:41.125Z,11.77
2022-10-29T16:35:20.754Z,17.05
2022-10-29T16:37:47.828Z,15.95
2022-10-29T16:40:14.523Z,12.33
2022-10-29T16:42:41.287Z,17.90
2022-10-29T16:45:12.570Z,18.27
2022-10-29T16:47:38.968Z,14.45
2022-10-29T16:50:06.258Z,15.02
2022-10-29T16:52:32.932Z,13.23
2022-10-29T16:54:59.518Z,14.45
2022-10-29T16:57:26.439Z,11.15
2022-10-29T16:59:52.792Z,16.75
2022-10-29T17:02:19.136Z,11.85
2022-10-29T17:04:45.530Z,18.70
2022-10-29T17:07:11.902Z,14.00
2022-10-29T17:09:38.527Z,16.30
2022-10-29T17:12:05.164Z,10.85
2022-10-29T17:14:31.556Z,11.93
2022-10-29T17:16:58.463Z,11.10
2022-10-29T17:19:24.950Z,15.23
2022-10-29T17:21:51.554Z,13.45
2022-10-29T17:24:17.903Z,12.75
2022-10-29T17:26:44.473Z,13.45
2022-10-29T17:29:11.170Z,17.50
2022-10-29T17:31:37.519Z,13.65
2022-10-29T17:34:03.948Z,14.82
2022-10-29T17:36:30.309Z,13.35
2022-10-29T17:38:56.674Z,11.68
2022-10-29T17:41:23.172Z,18.73
2022-10-29T17:43:49.522Z,16.00
2022-10-29T17:46:17.923Z,13.68
2022-10-29T17:48:44.314Z,16.20
2022-10-29T17:51:10.665Z,12.70
2022-10-29T17:53:38.025Z,12.77
2022-10-29T17:56:04.643Z,11.82
2022-10-29T17:58:31.133Z,11.18
2022-10-29T18:01:09.154Z,17.45
2022-10-29T18:03:36.757Z,14.80
2022-10-29T18:06:06.458Z,14.23
2022-10-29T18:08:35.562Z,11.65
2022-10-29T18:11:07.642Z,14.88
2022-10-29T18:13:39.234Z,14.10
2022-10-29T18:16:05.941Z,15.25
2022-10-29T18:18:48.144Z,17.73
2022-10-29T18:21:25.195Z,18.77
2022-10-29T18:23:52.186Z,13.88
2022-10-29T18:26:24.548Z,15.98
2022-10-29T18:28:52.439Z,13.60
2022-10-29T18:31:19.445Z,16.10
2022-10-29T18:33:45.958Z,19.60
2022-10-29T18:36:12.352Z,19.52
2022-10-29T18:38:39.723Z,14.90
2022-10-29T18:41:06.952Z,15.80
2022-10-29T18:43:35.214Z,19.03
2022-10-29T18:46:06.822Z,15.05
2022-10-29T18:48:41.370Z,13.77
2022-10-29T18:51:12.115Z,16.10
2022-10-29T18:53:39.145Z,18.48
2022-10-29T18:56:14.766Z,14.77
2022-10-29T18:58:42.127Z,17.40
2022-10-29T19:01:32.054Z,15.85
2022-10-29T19:04:07.256Z,14.93
2022-10-29T19:06:36.049Z,15.57
2022-10-29T19:09:07.791Z,14.33
2022-10-29T19:11:34.907Z,13.55
2022-10-29T19:14:04.266Z,15.48
2022-10-29T19:16:32.144Z,14.65
2022-10-29T19:19:12.045Z,11.70
2022-10-29T19:21:39.711Z,13.07
2022-10-29T19:24:07.539Z,12.27
2022-10-29T19:26:35.984Z,16.95
2022-10-29T19:29:04.763Z,16.73
2022-10-29T19:31:33.403Z,14.15
2022-10-29T19:34:02.837Z,9.17
2022-10-29T19:36:30.212Z,14.10
2022-10-29T19:38:57.049Z,12.13
2022-10-29T19:41:24.075Z,17.00
2022-10-29T19:43:50.777Z,13.90
2022-10-29T19:46:19.637Z,14.90
2022-10-29T19:48:50.996Z,11.73
2022-10-29T19:51:18.264Z,16.70
2022-10-29T19:53:45.260Z,14.75
2022-10-29T19:56:13.997Z,16.83
2022-10-29T19:58:40.463Z,14.27
2022-10-29T20:01:18.848Z,15.27
2022-10-29T20:03:46.576Z,12.45
2022-10-29T20:06:13.859Z,17.52
2022-10-29T20:08:40.538Z,17.75
2022-10-29T20:11:07.511Z,19.57
2022-10-29T20:13:34.501Z,13.77
2022-10-29T20:16:07.349Z,15.25
2022-10-29T20:18:35.149Z,18.00
2022-10-29T20:21:01.621Z,14.32
2022-10-29T20:23:29.409Z,16.27
2022-10-29T20:25:55.876Z,14.25
2022-10-29T20:28:22.309Z,16.30
2022-10-29T20:30:48.916Z,13.23
2022-10-29T20:33:15.419Z,15.23
2022-10-29T20:35:41.899Z,15.30
2022-10-29T20:38:08.447Z,15.32
2022-10-29T20:40:34.975Z,16.35
2022-10-29T20:43:01.583Z,14.55
2022-10-29T20:45:28.233Z,15.52
2022-10-29T20:47:54.895Z,15.80
2022-10-29T20:50:21.523Z,17.50
2022-10-29T20:52:48.990Z,15.05
2022-10-29T20:55:16.123Z,12.00
2022-10-29T20:57:42.577Z,11.65
2022-10-29T21:00:09.761Z,11.33
2022-10-29T21:02:36.255Z,15.40
2022-10-29T21:05:02.918Z,22.65
2022-10-29T21:07:29.279Z,12.43
2022-10-29T21:09:55.802Z,12.85
2022-10-29T21:12:22.200Z,15.23
2022-10-29T21:14:48.600Z,14.60
2022-10-29T21:17:15.030Z,15.10
2022-10-29T21:19:41.408Z,18.88
2022-10-29T21:22:10.954Z,16.45
2022-10-29T21:24:39.194Z,14.50
2022-10-29T21:27:06.894Z,12.65
2022-10-29T21:29:53.318Z,14.27
2022-10-29T21:32:19.793Z,16.58
2022-10-29T21:34:47.386Z,14.70
2022-10-29T21:37:13.784Z,15.03
2022-10-29T21:39:40.181Z,11.45
2022-10-29T21:42:06.624Z,13.57
2022-10-29T21:44:33.073Z,15.18
2022-10-29T21:46:59.471Z,13.85
2022-10-29T21:49:25.922Z,13.13
2022-10-29T21:51:52.392Z,13.77
2022-10-29T21:54:20.072Z,14.73
2022-10-29T21:56:48.525Z,17.70
2022-10-29T21:59:25.420Z,11.77
2022-10-29T22:01:54.011Z,11.90
2022-10-29T22:04:43.245Z,15.45
2022-10-29T22:07:09.838Z,14.07
2022-10-29T22:09:36.318Z,18.95
2022-10-29T22:12:03.887Z,16.02
2022-10-29T22:14:30.242Z,14.93
2022-10-29T22:16:57.747Z,15.60
2022-10-29T22:19:29.196Z,16.70
2022-10-29T22:21:55.965Z,15.18
2022-10-29T22:24:22.295Z,15.52
2022-10-29T22:26:48.623Z,13.80
2022-10-29T22:29:14.966Z,13.85
2022-10-29T22:31:42.315Z,13.50
2022-10-29T22:34:08.667Z,15.48
2022-10-29T22:36:35.061Z,14.05
2022-10-29T22:39:02.141Z,15.90
2022-10-29T22:41:29.778Z,16.55
2022-10-29T22:43:59.012Z,16.08
2022-10-29T22:46:33.389Z,13.93
2022-10-29T22:49:19.121Z,14.93
2022-10-29T22:51:45.603Z,14.30
2022-10-29T22:54:18.163Z,14.40
2022-10-29T22:56:50.598Z,15.65
2022-10-29T22:59:21.043Z,10.48
2022-10-29T23:01:53.858Z,11.25
2022-10-29T23:04:25.769Z,16.87
2022-10-29T23:06:52.147Z,11.70
2022-10-29T23:09:18.618Z,14.73
2022-10-29T23:11:44.999Z,12.23
2022-10-29T23:14:12.367Z,13.63
2022-10-29T23:16:38.735Z,11.80
2022-10-29T23:19:07.101Z,13.75
2022-10-29T23:21:33.647Z,12.95
2022-10-29T23:24:02.297Z,14.18
2022-10-29T23:26:29.171Z,15.48
2022-10-29T23:28:57.835Z,11.30
2022-10-29T23:31:27.186Z,12.50
2022-10-29T23:33:55.521Z,11.50
2022-10-29T23:36:23.644Z,14.27
2022-10-29T23:39:01.743Z,13.10
2022-10-29T23:41:31.011Z,9.07
2022-10-29T23:43:57.900Z,13.65
2022-10-29T23:46:24.428Z,14.10
2022-10-29T23:49:04.955Z,16.00
2022-10-29T23:51:36.520Z,10.63
2022-10-29T23:54:03.048Z,11.23
2022-10-29T23:56:29.507Z,12.57
2022-10-29T23:59:06.018Z,12.85
